createdAt,value
2022-12-24T00:00:42.001Z,6.38
2022-12-24T00:03:09.452Z,6.41
2022-12-24T00:05:37.978Z,6.38
2022-12-24T00:08:05.447Z,6.36
2022-12-24T00:10:32.758Z,6.40
2022-12-24T00:13:01.355Z,6.35
2022-12-24T00:15:28.500Z,6.36
2022-12-24T00:17:55.755Z,6.39
2022-12-24T00:20:22.947Z,6.33
2022-12-24T00:22:50.263Z,6.35
2022-12-24T00:25:17.568Z,6.31
2022-12-24T00:27:44.831Z,6.30
2022-12-24T00:30:13.648Z,6.34
2022-12-24T00:32:40.899Z,6.33
2022-12-24T00:35:08.689Z,6.36
2022-12-24T00:37:35.928Z,6.34
2022-12-24T00:40:03.690Z,6.34
2022-12-24T00:42:31.023Z,6.32
2022-12-24T00:44:58.237Z,6.33
2022-12-24T00:47:26.933Z,6.32
2022-12-24T00:49:54.160Z,6.32
2022-12-24T00:52:21.453Z,6.33
2022-12-24T00:54:48.642Z,6.35
2022-12-24T00:57:15.896Z,6.34
2022-12-24T00:59:43.125Z,6.36
2022-12-24T01:02:10.687Z,6.37
2022-12-24T01:04:39.451Z,6.37
2022-12-24T01:07:06.757Z,6.36
2022-12-24T01:09:34.012Z,6.35
2022-12-24T01:12:01.330Z,6.36
2022-12-24T01:14:28.501Z,6.36
2022-12-24T01:16:55.752Z,6.35
2022-12-24T01:19:22.933Z,6.35
2022-12-24T01:21:51.568Z,6.33
2022-12-24T01:24:18.757Z,6.35
2022-12-24T01:26:46.094Z,6.32
2022-12-24T01:29:13.369Z,6.35
2022-12-24T01:31:40.701Z,6.36
2022-12-24T01:34:08.041Z,6.38
2022-12-24T01:36:36.101Z,6.38
2022-12-24T01:39:05.070Z,6.37
2022-12-24T01:41:33.148Z,6.39
2022-12-24T01:44:36.496Z,6.38
2022-12-24T01:47:10.199Z,6.37
2022-12-24T01:49:41.995Z,6.36
2022-12-24T01:52:12.933Z,6.41
2022-12-24T01:54:47.471Z,6.38
2022-12-24T01:57:18.234Z,6.41
2022-12-24T01:59:49.595Z,6.42
2022-12-24T02:02:17.851Z,6.36
2022-12-24T02:04:51.128Z,6.40
2022-12-24T02:07:18.510Z,6.37
2022-12-24T02:09:49.600Z,6.32
2022-12-24T02:12:16.913Z,6.33
2022-12-24T02:14:44.096Z,6.35
2022-12-24T02:17:20.696Z,6.33
2022-12-24T02:20:17.651Z,6.32
2022-12-24T02:23:03.279Z,6.34
2022-12-24T02:25:55.737Z,6.37
2022-12-24T02:28:43.698Z,6.34
2022-12-24T02:31:20.050Z,6.38
2022-12-24T02:33:52.273Z,6.38
2022-12-24T02:36:25.682Z,6.35
2022-12-24T02:39:01.612Z,6.37
2022-12-24T02:41:33.549Z,6.39
2022-12-24T02:44:00.938Z,6.36
2022-12-24T02:46:32.694Z,6.35
2022-12-24T02:49:00.971Z,6.34
2022-12-24T02:51:28.180Z,6.37
2022-12-24T02:53:55.625Z,6.37
2022-12-24T02:56:52.880Z,6.36
2022-12-24T02:59:46.702Z,6.40
2022-12-24T03:02:26.609Z,6.38
2022-12-24T03:04:59.661Z,6.37
2022-12-24T03:07:31.822Z,6.40
2022-12-24T03:10:08.325Z,6.43
2022-12-24T03:12:39.961Z,6.49
2022-12-24T03:15:09.456Z,6.44
2022-12-24T03:17:40.685Z,6.45
2022-12-24T03:20:10.715Z,6.41
2022-12-24T03:22:38.775Z,6.43
2022-12-24T03:25:06.510Z,6.46
2022-12-24T03:27:35.248Z,6.46
2022-12-24T03:30:03.879Z,6.39
2022-12-24T03:32:32.833Z,6.44
2022-12-24T03:35:01.827Z,6.44
2022-12-24T03:37:29.047Z,6.47
2022-12-24T03:39:56.334Z,6.50
2022-12-24T03:42:23.571Z,6.50
2022-12-24T03:44:50.824Z,6.52
2022-12-24T03:47:18.089Z,6.55
2022-12-24T03:49:45.796Z,6.59
2022-12-24T03:52:14.364Z,6.53
2022-12-24T03:54:41.771Z,6.55
2022-12-24T03:57:09.010Z,6.55
2022-12-24T03:59:36.235Z,6.52
2022-12-24T04:02:03.551Z,6.58
2022-12-24T04:04:30.912Z,6.52
2022-12-24T04:06:58.097Z,6.54
2022-12-24T04:09:28.007Z,6.56
2022-12-24T04:11:55.244Z,6.55
2022-12-24T04:14:22.540Z,6.55
2022-12-24T04:16:49.780Z,6.57
2022-12-24T04:19:17.051Z,6.59
2022-12-24T04:21:44.367Z,6.61
2022-12-24T04:24:11.585Z,6.56
2022-12-24T04:26:40.215Z,6.58
2022-12-24T04:29:07.409Z,6.59
2022-12-24T04:31:34.759Z,6.61
2022-12-24T04:34:02.168Z,6.55
2022-12-24T04:36:30.352Z,6.61
2022-12-24T04:38:57.640Z,6.62
2022-12-24T04:41:25.252Z,6.69
2022-12-24T04:43:55.008Z,6.67
2022-12-24T04:46:24.808Z,6.72
2022-12-24T04:48:54.066Z,6.74
2022-12-24T04:51:21.837Z,6.72
2022-12-24T04:53:49.382Z,6.77
2022-12-24T04:56:18.573Z,6.71
2022-12-24T04:58:45.903Z,6.80
2022-12-24T05:01:17.309Z,6.81
2022-12-24T05:03:44.885Z,6.93
2022-12-24T05:06:14.341Z,6.88
2022-12-24T05:08:42.148Z,6.92
2022-12-24T05:11:10.045Z,6.95
2022-12-24T05:13:44.326Z,7.03
2022-12-24T05:16:16.901Z,7.08
2022-12-24T05:18:44.381Z,7.09
2022-12-24T05:21:15.044Z,7.10
2022-12-24T05:23:42.538Z,7.12
2022-12-24T05:26:16.440Z,7.16
2022-12-24T05:28:43.695Z,7.19
2022-12-24T05:31:11.047Z,7.21
2022-12-24T05:33:39.693Z,7.19
2022-12-24T05:36:07.837Z,7.24
2022-12-24T05:38:35.139Z,7.27
2022-12-24T05:41:02.414Z,7.35
2022-12-24T05:43:29.725Z,7.35
2022-12-24T05:45:58.888Z,7.38
2022-12-24T05:48:26.220Z,7.44
2022-12-24T05:50:55.429Z,7.43
2022-12-24T05:53:23.101Z,7.38
2022-12-24T05:55:50.393Z,7.59
2022-12-24T05:58:17.725Z,7.57
2022-12-24T06:00:44.971Z,7.66
2022-12-24T06:03:12.245Z,7.79
2022-12-24T06:05:39.467Z,7.90
2022-12-24T06:08:08.109Z,7.98
2022-12-24T06:10:35.371Z,8.04
2022-12-24T06:13:02.615Z,8.19
2022-12-24T06:15:29.836Z,8.25
2022-12-24T06:17:57.078Z,8.29
2022-12-24T06:20:24.261Z,8.32
2022-12-24T06:22:51.517Z,8.36
2022-12-24T06:25:20.082Z,8.42
2022-12-24T06:27:47.327Z,8.47
2022-12-24T06:30:14.900Z,8.58
2022-12-24T06:32:42.170Z,8.64
2022-12-24T06:35:09.442Z,8.61
2022-12-24T06:37:36.655Z,8.61
2022-12-24T06:40:04.630Z,8.63
2022-12-24T06:42:33.403Z,8.65
2022-12-24T06:45:07.494Z,8.65
2022-12-24T06:47:35.593Z,8.67
2022-12-24T06:50:02.967Z,8.61
2022-12-24T06:52:30.155Z,8.51
2022-12-24T06:54:57.388Z,8.50
2022-12-24T06:57:24.747Z,8.59
2022-12-24T06:59:53.302Z,8.57
2022-12-24T07:02:20.588Z,8.51
2022-12-24T07:04:47.775Z,8.49
2022-12-24T07:07:15.080Z,8.44
2022-12-24T07:09:42.336Z,8.55
2022-12-24T07:12:09.656Z,8.56
2022-12-24T07:14:36.946Z,8.58
2022-12-24T07:17:06.711Z,8.69
2022-12-24T07:19:34.035Z,8.72
2022-12-24T07:22:01.274Z,8.69
2022-12-24T07:24:28.572Z,8.67
2022-12-24T07:26:55.824Z,8.74
2022-12-24T07:29:23.047Z,8.70
2022-12-24T07:31:50.378Z,8.69
2022-12-24T07:34:19.061Z,8.68
2022-12-24T07:36:46.383Z,8.75
2022-12-24T07:39:13.617Z,8.76
2022-12-24T07:41:41.848Z,8.69
2022-12-24T07:44:11.783Z,8.70
2022-12-24T07:46:39.250Z,8.69
2022-12-24T07:49:06.649Z,8.67
2022-12-24T07:51:35.229Z,8.72
2022-12-24T07:54:02.889Z,8.72
2022-12-24T07:56:30.154Z,8.77
2022-12-24T07:58:57.755Z,8.79
2022-12-24T08:01:25.498Z,8.70
2022-12-24T08:03:52.893Z,8.71
2022-12-24T08:06:20.494Z,8.81
2022-12-24T08:08:49.325Z,8.77
2022-12-24T08:11:17.093Z,8.79
2022-12-24T08:13:44.908Z,8.86
2022-12-24T08:16:12.567Z,8.80
2022-12-24T08:18:39.784Z,8.85
2022-12-24T08:21:07.876Z,8.89
2022-12-24T08:23:35.213Z,8.89
2022-12-24T08:26:07.158Z,8.96
2022-12-24T08:28:34.909Z,8.88
2022-12-24T08:31:02.739Z,8.93
2022-12-24T08:33:29.960Z,8.94
2022-12-24T08:35:57.487Z,8.95
2022-12-24T08:38:24.974Z,8.92
2022-12-24T08:40:53.717Z,8.96
2022-12-24T08:43:22.883Z,8.94
2022-12-24T08:45:50.433Z,8.93
2022-12-24T08:48:17.881Z,8.87
2022-12-24T08:50:45.585Z,8.82
2022-12-24T08:53:13.402Z,8.86
2022-12-24T08:55:40.830Z,8.88
2022-12-24T08:58:08.157Z,8.80
2022-12-24T09:00:37.277Z,8.94
2022-12-24T09:03:04.728Z,8.94
2022-12-24T09:05:32.008Z,8.97
2022-12-24T09:07:59.455Z,9.02
2022-12-24T09:10:26.702Z,9.07
2022-12-24T09:12:54.085Z,9.10
2022-12-24T09:15:21.632Z,9.08
2022-12-24T09:17:50.304Z,9.13
2022-12-24T09:20:17.763Z,9.18
2022-12-24T09:22:45.060Z,9.24
2022-12-24T09:25:12.679Z,9.18
2022-12-24T09:27:39.929Z,9.14
2022-12-24T09:30:09.793Z,9.11
2022-12-24T09:32:37.059Z,9.20
2022-12-24T09:35:06.138Z,9.27
2022-12-24T09:37:33.498Z,9.28
2022-12-24T09:40:00.701Z,9.40
2022-12-24T09:42:40.249Z,9.45
2022-12-24T09:45:16.309Z,9.47
2022-12-24T09:47:48.576Z,9.46
2022-12-24T09:50:29.148Z,9.64
2022-12-24T09:52:58.610Z,9.55
2022-12-24T09:55:30.453Z,9.57
2022-12-24T09:57:59.545Z,9.60
2022-12-24T10:00:30.560Z,9.69
2022-12-24T10:02:57.843Z,9.82
2022-12-24T10:05:36.909Z,9.80
2022-12-24T10:08:15.863Z,9.99
2022-12-24T10:10:50.766Z,10.10
2022-12-24T10:13:29.577Z,10.09
2022-12-24T10:16:03.274Z,9.96
2022-12-24T10:18:44.197Z,9.92
2022-12-24T10:21:27.301Z,9.95
2022-12-24T10:24:00.455Z,10.09
2022-12-24T10:26:34.300Z,10.08
2022-12-24T10:29:08.637Z,10.22
2022-12-24T10:31:39.715Z,10.24
2022-12-24T10:34:16.154Z,10.18
2022-12-24T10:36:44.805Z,10.06
2022-12-24T10:39:18.486Z,10.12
2022-12-24T10:41:46.351Z,10.07
2022-12-24T10:44:17.705Z,10.07
2022-12-24T10:46:46.149Z,10.05
2022-12-24T10:49:15.671Z,10.03
2022-12-24T10:51:50.203Z,10.03
2022-12-24T10:54:26.241Z,10.04
2022-12-24T10:56:57.883Z,10.06
2022-12-24T10:59:27.875Z,10.18
2022-12-24T11:01:58.712Z,10.31
2022-12-24T11:04:28.083Z,10.25
2022-12-24T11:06:59.441Z,10.27
2022-12-24T11:09:29.298Z,10.14
2022-12-24T11:12:00.424Z,10.24
2022-12-24T11:14:34.819Z,10.20
2022-12-24T11:17:02.282Z,10.64
2022-12-24T11:19:32.956Z,10.88
2022-12-24T11:22:04.820Z,11.18
2022-12-24T11:24:34.254Z,11.12
2022-12-24T11:27:29.934Z,11.87
2022-12-24T11:30:19.831Z,11.75
2022-12-24T11:32:49.449Z,12.04
2022-12-24T11:35:19.449Z,11.63
2022-12-24T11:37:48.327Z,11.61
2022-12-24T11:40:20.712Z,11.23
2022-12-24T11:42:50.128Z,11.08
2022-12-24T11:45:22.452Z,11.55
2022-12-24T11:47:50.164Z,11.69
2022-12-24T11:50:26.726Z,11.66
2022-12-24T11:53:05.317Z,11.22
2022-12-24T11:55:40.998Z,10.92
2022-12-24T11:58:20.147Z,11.14
2022-12-24T12:00:50.358Z,10.97
2022-12-24T12:03:29.296Z,10.84
2022-12-24T12:05:59.824Z,10.74
2022-12-24T12:08:30.246Z,10.71
2022-12-24T12:10:59.126Z,10.64
2022-12-24T12:13:29.526Z,10.67
2022-12-24T12:16:06.358Z,10.55
2022-12-24T12:18:37.352Z,10.66
2022-12-24T12:21:09.630Z,10.62
2022-12-24T12:23:44.544Z,10.57
2022-12-24T12:26:17.696Z,10.49
2022-12-24T12:28:49.487Z,10.47
2022-12-24T12:31:22.536Z,10.44
2022-12-24T12:33:54.860Z,10.25
2022-12-24T12:36:26.727Z,10.16
2022-12-24T12:38:55.571Z,10.44
2022-12-24T12:41:39.967Z,10.89
2022-12-24T12:44:30.339Z,10.61
2022-12-24T12:47:22.977Z,10.39
2022-12-24T12:50:02.616Z,10.38
2022-12-24T12:52:44.222Z,10.40
2022-12-24T12:55:26.156Z,10.38
2022-12-24T12:58:06.549Z,10.50
2022-12-24T13:00:38.630Z,10.34
2022-12-24T13:03:32.031Z,10.33
2022-12-24T13:06:22.226Z,10.30
2022-12-24T13:09:14.803Z,10.43
2022-12-24T13:12:11.521Z,10.42
2022-12-24T13:14:55.830Z,10.46
2022-12-24T13:17:42.704Z,10.47
2022-12-24T13:20:24.098Z,10.45
2022-12-24T13:22:57.517Z,10.61
2022-12-24T13:25:30.740Z,10.63
2022-12-24T13:28:15.713Z,10.57
2022-12-24T13:30:43.069Z,10.59
2022-12-24T13:33:12.023Z,10.87
2022-12-24T13:35:59.191Z,10.88
2022-12-24T13:38:43.050Z,11.01
2022-12-24T13:41:56.257Z,10.91
2022-12-24T13:44:29.543Z,10.75
2022-12-24T13:47:00.315Z,10.72
2022-12-24T13:49:31.832Z,10.73
2022-12-24T13:52:22.547Z,10.59
2022-12-24T13:55:17.732Z,10.55
2022-12-24T13:57:54.158Z,10.58
2022-12-24T14:00:34.300Z,10.69
2022-12-24T14:03:07.803Z,10.68
2022-12-24T14:05:39.847Z,10.81
2022-12-24T14:08:11.298Z,10.55
2022-12-24T14:10:41.073Z,10.46
2022-12-24T14:13:41.756Z,10.41
2022-12-24T14:16:12.771Z,10.44
2022-12-24T14:18:42.285Z,10.73
2022-12-24T14:21:17.265Z,10.87
2022-12-24T14:23:51.543Z,10.87
2022-12-24T14:26:22.051Z,11.07
2022-12-24T14:28:55.043Z,10.78
2022-12-24T14:31:24.036Z,10.57
2022-12-24T14:33:51.695Z,10.47
2022-12-24T14:36:23.350Z,10.46
2022-12-24T14:38:50.955Z,10.29
2022-12-24T14:41:28.461Z,10.26
2022-12-24T14:44:05.214Z,10.26
2022-12-24T14:46:42.402Z,10.17
2022-12-24T14:49:23.751Z,10.10
2022-12-24T14:51:57.473Z,10.06
2022-12-24T14:54:33.999Z,10.01
2022-12-24T14:57:23.291Z,9.88
2022-12-24T14:59:52.743Z,9.81
2022-12-24T15:02:45.896Z,9.80
2022-12-24T15:05:15.976Z,9.75
2022-12-24T15:07:47.968Z,9.67
2022-12-24T15:10:27.915Z,9.66
2022-12-24T15:12:57.633Z,9.57
2022-12-24T15:15:24.992Z,9.43
2022-12-24T15:17:55.188Z,9.34
2022-12-24T15:20:25.730Z,9.36
2022-12-24T15:22:54.834Z,9.33
2022-12-24T15:25:24.622Z,9.27
2022-12-24T15:27:52.435Z,9.20
2022-12-24T15:30:21.961Z,9.17
2022-12-24T15:32:50.959Z,9.05
2022-12-24T15:35:34.522Z,9.12
2022-12-24T15:38:03.567Z,9.07
2022-12-24T15:40:30.862Z,9.08
2022-12-24T15:42:58.293Z,9.03
2022-12-24T15:45:28.929Z,9.02
2022-12-24T15:48:00.452Z,9.01
2022-12-24T15:50:30.643Z,8.95
2022-12-24T15:53:20.619Z,8.90
2022-12-24T15:56:01.248Z,8.84
2022-12-24T15:58:30.622Z,8.87
2022-12-24T16:01:28.452Z,8.84
2022-12-24T16:03:58.613Z,8.81
2022-12-24T16:06:26.160Z,8.89
2022-12-24T16:08:55.383Z,8.90
2022-12-24T16:11:24.334Z,8.97
2022-12-24T16:14:00.343Z,8.98
2022-12-24T16:16:36.657Z,9.04
2022-12-24T16:19:06.360Z,9.09
2022-12-24T16:21:36.298Z,9.19
2022-12-24T16:24:07.789Z,9.35
2022-12-24T16:26:35.895Z,9.48
2022-12-24T16:29:03.119Z,9.52
2022-12-24T16:31:33.331Z,9.53
2022-12-24T16:34:01.839Z,9.54
2022-12-24T16:36:30.627Z,9.53
2022-12-24T16:38:58.409Z,9.53
2022-12-24T16:41:27.111Z,9.51
2022-12-24T16:43:54.308Z,9.55
2022-12-24T16:46:21.785Z,9.49
2022-12-24T16:48:49.297Z,9.48
2022-12-24T16:51:16.598Z,9.52
2022-12-24T16:53:43.853Z,9.50
2022-12-24T16:56:11.126Z,9.44
2022-12-24T16:58:39.706Z,9.53
2022-12-24T17:01:08.766Z,9.57
2022-12-24T17:03:36.645Z,9.52
2022-12-24T17:06:05.636Z,9.47
2022-12-24T17:08:32.860Z,9.43
2022-12-24T17:11:00.128Z,9.47
2022-12-24T17:13:27.395Z,9.48
2022-12-24T17:15:56.140Z,9.43
2022-12-24T17:18:23.406Z,9.45
2022-12-24T17:20:58.305Z,9.50
2022-12-24T17:23:25.699Z,9.51
2022-12-24T17:25:52.981Z,9.48
2022-12-24T17:28:20.264Z,9.49
2022-12-24T17:30:47.692Z,9.48
2022-12-24T17:33:16.433Z,9.43
2022-12-24T17:35:44.122Z,9.40
2022-12-24T17:38:11.390Z,9.43
2022-12-24T17:40:38.624Z,9.27
2022-12-24T17:43:06.058Z,9.17
2022-12-24T17:45:33.395Z,9.15
2022-12-24T17:48:00.716Z,9.20
2022-12-24T17:50:29.369Z,9.15
2022-12-24T17:52:56.623Z,9.22
2022-12-24T17:55:23.834Z,9.23
2022-12-24T17:57:51.156Z,9.28
2022-12-24T18:00:19.097Z,9.26
2022-12-24T18:02:46.544Z,9.25
2022-12-24T18:05:13.819Z,9.15
2022-12-24T18:07:42.460Z,9.09
2022-12-24T18:10:10.497Z,9.16
2022-12-24T18:12:37.785Z,9.11
2022-12-24T18:15:06.149Z,9.01
2022-12-24T18:17:33.468Z,8.99
2022-12-24T18:20:00.744Z,8.92
2022-12-24T18:22:27.959Z,8.88
2022-12-24T18:24:56.547Z,8.87
2022-12-24T18:27:24.055Z,8.85
2022-12-24T18:29:51.265Z,8.79
2022-12-24T18:32:18.596Z,8.74
2022-12-24T18:34:45.867Z,8.65
2022-12-24T18:37:13.181Z,8.62
2022-12-24T18:39:40.361Z,8.64
2022-12-24T18:42:09.336Z,8.63
2022-12-24T18:44:36.729Z,8.69
2022-12-24T18:47:04.187Z,8.71
2022-12-24T18:49:31.524Z,8.77
2022-12-24T18:51:58.859Z,8.74
2022-12-24T18:54:26.177Z,8.70
2022-12-24T18:56:53.493Z,8.78
2022-12-24T18:59:22.150Z,8.67
2022-12-24T19:01:49.635Z,8.60
2022-12-24T19:04:17.003Z,8.65
2022-12-24T19:06:49.097Z,8.76
2022-12-24T19:09:20.295Z,8.72
2022-12-24T19:11:47.560Z,8.67
2022-12-24T19:14:14.893Z,8.71
2022-12-24T19:16:43.547Z,8.77
2022-12-24T19:19:12.346Z,8.80
2022-12-24T19:21:39.600Z,8.74
2022-12-24T19:24:07.407Z,8.64
2022-12-24T19:26:34.663Z,8.53
2022-12-24T19:29:02.025Z,8.47
2022-12-24T19:31:29.429Z,8.36
2022-12-24T19:33:58.117Z,8.32
2022-12-24T19:36:27.786Z,8.28
2022-12-24T19:38:55.817Z,8.16
2022-12-24T19:41:25.456Z,8.12
2022-12-24T19:43:54.425Z,8.04
2022-12-24T19:46:25.408Z,7.99
2022-12-24T19:48:54.429Z,7.98
2022-12-24T19:51:24.449Z,7.86
2022-12-24T19:53:53.262Z,7.84
2022-12-24T19:56:22.045Z,7.78
2022-12-24T19:58:49.439Z,7.67
2022-12-24T20:01:18.535Z,7.62
2022-12-24T20:03:46.932Z,7.54
2022-12-24T20:06:15.167Z,7.46
2022-12-24T20:08:44.464Z,7.42
2022-12-24T20:11:14.186Z,7.39
2022-12-24T20:13:42.177Z,7.35
2022-12-24T20:16:11.424Z,7.32
2022-12-24T20:18:39.005Z,7.26
2022-12-24T20:21:08.225Z,7.20
2022-12-24T20:23:36.929Z,7.25
2022-12-24T20:26:06.701Z,7.14
2022-12-24T20:28:36.647Z,7.13
2022-12-24T20:31:10.047Z,7.05
2022-12-24T20:33:37.357Z,6.99
2022-12-24T20:36:05.349Z,7.01
2022-12-24T20:38:32.702Z,6.98
2022-12-24T20:41:00.675Z,6.94
2022-12-24T20:43:35.261Z,6.92
2022-12-24T20:46:04.926Z,6.90
2022-12-24T20:48:32.240Z,6.95
2022-12-24T20:50:59.892Z,6.95
2022-12-24T20:53:27.277Z,6.84
2022-12-24T20:55:54.899Z,6.84
2022-12-24T20:58:22.109Z,6.80
2022-12-24T21:00:51.391Z,6.78
2022-12-24T21:03:18.769Z,6.73
2022-12-24T21:05:46.164Z,6.70
2022-12-24T21:08:14.063Z,6.68
2022-12-24T21:10:42.122Z,6.65
2022-12-24T21:13:09.367Z,6.61
2022-12-24T21:15:38.375Z,6.58
2022-12-24T21:18:08.075Z,6.61
2022-12-24T21:20:36.161Z,6.55
2022-12-24T21:23:03.450Z,6.54
2022-12-24T21:25:30.753Z,6.52
2022-12-24T21:27:57.957Z,6.52
2022-12-24T21:30:25.275Z,6.54
2022-12-24T21:32:52.580Z,6.50
2022-12-24T21:35:21.249Z,6.44
2022-12-24T21:37:48.482Z,6.48
2022-12-24T21:40:15.793Z,6.45
2022-12-24T21:42:42.985Z,6.43
2022-12-24T21:45:11.375Z,6.42
2022-12-24T21:47:38.570Z,6.40
2022-12-24T21:50:06.938Z,6.38
2022-12-24T21:52:35.561Z,6.30
2022-12-24T21:55:03.261Z,6.29
2022-12-24T21:57:30.461Z,6.23
2022-12-24T21:59:59.054Z,6.20
2022-12-24T22:02:26.416Z,6.14
2022-12-24T22:04:54.070Z,6.08
2022-12-24T22:07:23.695Z,6.10
2022-12-24T22:09:52.360Z,6.15
2022-12-24T22:12:19.933Z,6.08
2022-12-24T22:14:47.433Z,6.13
2022-12-24T22:17:17.153Z,6.17
2022-12-24T22:19:48.538Z,6.14
2022-12-24T22:22:15.710Z,6.12
2022-12-24T22:24:42.897Z,5.97
2022-12-24T22:27:11.542Z,5.96
2022-12-24T22:29:38.918Z,5.96
2022-12-24T22:32:06.443Z,5.90
2022-12-24T22:34:33.697Z,5.90
2022-12-24T22:37:01.067Z,5.85
2022-12-24T22:39:28.468Z,5.82
2022-12-24T22:41:55.699Z,5.72
2022-12-24T22:44:24.430Z,5.81
2022-12-24T22:46:51.775Z,5.84
2022-12-24T22:49:19.104Z,5.85
2022-12-24T22:51:46.351Z,5.90
2022-12-24T22:54:13.556Z,5.89
2022-12-24T22:56:41.721Z,5.87
2022-12-24T22:59:11.962Z,5.90
2022-12-24T23:01:43.263Z,5.84
2022-12-24T23:04:11.720Z,5.83
2022-12-24T23:06:40.080Z,5.78
2022-12-24T23:09:09.419Z,5.71
2022-12-24T23:11:36.643Z,5.71
2022-12-24T23:14:03.920Z,5.71
2022-12-24T23:16:32.172Z,5.70
2022-12-24T23:19:03.292Z,5.66
2022-12-24T23:21:30.763Z,5.65
2022-12-24T23:23:59.799Z,5.69
2022-12-24T23:26:27.523Z,5.70
2022-12-24T23:28:55.341Z,5.66
2022-12-24T23:31:23.529Z,5.74
2022-12-24T23:33:50.987Z,5.71
2022-12-24T23:36:19.863Z,5.80
2022-12-24T23:38:47.479Z,5.81
2022-12-24T23:41:16.870Z,5.83
2022-12-24T23:43:44.282Z,5.82
2022-12-24T23:46:13.439Z,5.80
2022-12-24T23:48:40.826Z,5.80
2022-12-24T23:51:10.648Z,5.86
2022-12-24T23:53:39.306Z,5.81
2022-12-24T23:56:07.738Z,5.77
2022-12-24T23:58:34.934Z,5.78
